createdAt,value
2018-04-18T00:00:12.787Z,67.27
2018-04-18T00:02:38.856Z,68.25
2018-04-18T00:05:04.916Z,68.15
2018-04-18T00:07:30.946Z,68.39
2018-04-18T00:09:56.977Z,69.35
2018-04-18T00:12:22.992Z,68.90
2018-04-18T00:14:49.026Z,68.41
2018-04-18T00:17:15.069Z,67.88
2018-04-18T00:19:41.099Z,67.98
2018-04-18T00:22:07.218Z,68.12
2018-04-18T00:24:33.230Z,68.08
2018-04-18T00:26:59.255Z,69.29
2018-04-18T00:29:26.313Z,69.33
2018-04-18T00:31:52.299Z,69.71
2018-04-18T00:34:18.317Z,70.42
2018-04-18T00:36:44.346Z,68.65
2018-04-18T00:39:10.337Z,70.02
2018-04-18T00:41:36.322Z,70.33
2018-04-18T00:44:02.351Z,70.33
2018-04-18T00:46:28.391Z,69.40
2018-04-18T00:48:54.403Z,70.29
2018-04-18T00:51:20.442Z,70.47
2018-04-18T00:53:46.447Z,70.48
2018-04-18T00:56:12.451Z,70.65
2018-04-18T00:58:38.452Z,70.64
2018-04-18T01:01:04.502Z,69.57
2018-04-18T01:03:30.529Z,70.82
2018-04-18T01:05:56.551Z,70.20
2018-04-18T01:08:22.577Z,69.16
2018-04-18T01:10:48.600Z,69.05
2018-04-18T01:13:14.598Z,69.04
2018-04-18T01:15:40.578Z,68.20
2018-04-18T01:18:06.708Z,68.73
2018-04-18T01:20:32.783Z,69.75
2018-04-18T01:22:58.767Z,68.79
2018-04-18T01:25:24.802Z,69.37
2018-04-18T01:27:50.810Z,69.56
2018-04-18T01:30:16.843Z,71.25
2018-04-18T01:32:42.835Z,70.34
2018-04-18T01:35:08.817Z,70.20
2018-04-18T01:37:34.814Z,68.71
2018-04-18T01:40:00.820Z,68.29
2018-04-18T01:42:26.858Z,68.85
2018-04-18T01:44:52.880Z,68.37
2018-04-18T01:47:18.907Z,67.94
2018-04-18T01:49:44.940Z,67.30
2018-04-18T01:52:10.937Z,67.17
2018-04-18T01:54:36.959Z,68.32
2018-04-18T01:57:02.946Z,68.13
2018-04-18T01:59:28.986Z,68.49
2018-04-18T02:01:54.976Z,67.56
2018-04-18T02:04:20.979Z,68.60
2018-04-18T02:06:46.991Z,68.01
2018-04-18T02:09:12.979Z,67.65
2018-04-18T02:11:38.953Z,68.26
2018-04-18T02:14:04.965Z,67.52
2018-04-18T02:16:31.019Z,67.52
2018-04-18T02:18:57.045Z,67.68
2018-04-18T02:21:23.094Z,67.02
2018-04-18T02:23:49.094Z,66.77
2018-04-18T02:26:15.067Z,66.57
2018-04-18T02:28:41.141Z,66.48
2018-04-18T02:31:07.169Z,66.83
2018-04-18T02:33:33.212Z,66.27
2018-04-18T02:35:59.214Z,66.43
2018-04-18T02:38:25.228Z,66.46
2018-04-18T02:40:51.235Z,66.31
2018-04-18T02:43:17.250Z,66.38
2018-04-18T02:45:43.252Z,66.70
2018-04-18T02:48:09.272Z,66.77
2018-04-18T02:50:35.967Z,66.64
2018-04-18T02:53:01.957Z,66.29
2018-04-18T02:55:28.007Z,66.24
2018-04-18T02:57:54.118Z,66.55
2018-04-18T03:00:20.153Z,66.18
2018-04-18T03:02:46.186Z,66.36
2018-04-18T03:05:12.220Z,67.12
2018-04-18T03:07:38.202Z,66.80
2018-04-18T03:10:04.242Z,67.38
2018-04-18T03:12:30.255Z,68.01
2018-04-18T03:14:56.261Z,67.22
2018-04-18T03:17:22.235Z,68.22
2018-04-18T03:19:48.278Z,69.60
2018-04-18T03:22:14.264Z,69.56
2018-04-18T03:24:40.224Z,70.16
2018-04-18T03:27:06.252Z,70.23
2018-04-18T03:29:32.262Z,68.95
2018-04-18T03:31:58.250Z,68.49
2018-04-18T03:34:24.223Z,68.68
2018-04-18T03:36:50.210Z,69.55
2018-04-18T03:39:16.164Z,69.41
2018-04-18T03:41:42.161Z,69.60
2018-04-18T03:44:08.127Z,69.32
2018-04-18T03:46:34.967Z,70.22
2018-04-18T03:49:02.482Z,69.04
2018-04-18T03:54:43.028Z,68.42
2018-04-18T03:57:10.064Z,69.48
2018-04-18T03:59:36.124Z,68.31
2018-04-18T04:02:02.182Z,68.44
2018-04-18T04:04:28.175Z,68.30
2018-04-18T04:06:54.154Z,69.23
2018-04-18T04:09:20.206Z,69.75
2018-04-18T04:11:46.275Z,70.28
2018-04-18T04:16:44.717Z,70.79
2018-04-18T04:19:10.829Z,69.75
2018-04-18T04:21:36.937Z,70.22
2018-04-18T04:24:02.970Z,71.13
2018-04-18T04:26:28.993Z,70.28
2018-04-18T04:28:55.032Z,71.42
2018-04-18T04:31:21.108Z,71.56
2018-04-18T04:33:47.097Z,70.25
2018-04-18T04:36:13.154Z,70.43
2018-04-18T04:38:39.172Z,69.59
2018-04-18T04:41:05.233Z,68.86
2018-04-18T04:43:31.300Z,68.69
2018-04-18T04:45:57.385Z,68.92
2018-04-18T04:48:23.477Z,68.06
2018-04-18T04:50:49.630Z,69.37
2018-04-18T04:53:15.683Z,68.87
2018-04-18T04:55:42.213Z,69.05
2018-04-18T04:58:08.211Z,68.80
2018-04-18T05:00:34.195Z,68.37
2018-04-18T05:03:00.193Z,67.39
2018-04-18T05:05:26.188Z,67.78
2018-04-18T05:07:54.165Z,67.28
2018-04-18T05:10:20.512Z,67.13
2018-04-18T05:12:47.828Z,65.76
2018-04-18T05:15:13.962Z,65.28
2018-04-18T05:17:40.005Z,65.28
2018-04-18T05:20:06.090Z,63.93
2018-04-18T05:22:32.185Z,64.00
2018-04-18T05:24:58.142Z,64.12
2018-04-18T05:27:24.983Z,62.55
2018-04-18T05:29:50.957Z,62.17
2018-04-18T05:32:16.986Z,60.26
2018-04-18T05:34:42.962Z,59.81
2018-04-18T05:37:09.021Z,60.16
2018-04-18T05:39:35.012Z,59.19
2018-04-18T05:42:01.000Z,59.14
2018-04-18T05:44:26.981Z,59.54
2018-04-18T05:46:53.049Z,58.68
2018-04-18T05:49:19.098Z,58.33
2018-04-18T05:51:45.095Z,57.79
2018-04-18T05:54:11.093Z,58.04
2018-04-18T05:56:37.070Z,56.66
2018-04-18T05:59:03.063Z,56.83
2018-04-18T06:01:29.089Z,57.65
2018-04-18T06:03:55.070Z,56.37
2018-04-18T06:06:21.261Z,55.99
2018-04-18T06:08:47.235Z,55.43
2018-04-18T06:11:13.227Z,55.13
2018-04-18T06:13:39.245Z,54.82
2018-04-18T06:16:05.210Z,54.58
2018-04-18T06:18:31.192Z,55.22
2018-04-18T06:20:57.175Z,54.07
2018-04-18T06:23:23.173Z,53.91
2018-04-18T06:25:49.123Z,54.16
2018-04-18T06:28:15.082Z,53.99
2018-04-18T06:30:41.054Z,54.66
2018-04-18T06:33:07.062Z,53.92
2018-04-18T06:35:33.046Z,54.16
2018-04-18T06:37:59.041Z,53.79
2018-04-18T06:40:25.073Z,53.09
2018-04-18T06:42:51.136Z,52.74
2018-04-18T06:45:17.128Z,51.93
2018-04-18T06:47:43.124Z,51.09
2018-04-18T06:50:09.084Z,50.87
2018-04-18T06:52:35.083Z,50.64
2018-04-18T06:55:01.114Z,50.10
2018-04-18T06:57:27.119Z,50.05
2018-04-18T06:59:53.129Z,50.05
2018-04-18T07:02:19.110Z,49.41
2018-04-18T07:04:45.143Z,49.74
2018-04-18T07:07:11.122Z,50.24
2018-04-18T07:09:37.164Z,48.96
2018-04-18T07:12:03.131Z,48.36
2018-04-18T07:14:29.149Z,47.50
2018-04-18T07:16:55.169Z,46.41
2018-04-18T07:19:21.165Z,45.80
2018-04-18T07:21:47.218Z,45.17
2018-04-18T07:24:13.257Z,45.29
2018-04-18T07:26:39.241Z,43.77
2018-04-18T07:29:05.242Z,42.51
2018-04-18T07:31:31.206Z,41.97
2018-04-18T07:33:57.306Z,41.08
2018-04-18T07:36:23.300Z,39.80
2018-04-18T07:38:49.269Z,40.14
2018-04-18T07:41:15.244Z,39.42
2018-04-18T07:43:41.279Z,38.63
2018-04-18T07:46:07.284Z,38.90
2018-04-18T07:48:33.229Z,37.52
2018-04-18T07:50:59.274Z,37.32
2018-04-18T07:53:25.235Z,37.37
2018-04-18T07:55:51.235Z,36.69
2018-04-18T07:58:17.227Z,37.73
2018-04-18T08:00:43.280Z,37.49
2018-04-18T08:03:09.271Z,37.34
2018-04-18T08:05:35.282Z,37.30
2018-04-18T08:08:01.242Z,36.26
2018-04-18T08:10:27.205Z,37.74
2018-04-18T08:12:53.160Z,36.77
2018-04-18T08:15:19.188Z,36.77
2018-04-18T08:17:45.138Z,35.90
2018-04-18T08:20:11.126Z,37.19
2018-04-18T08:22:37.090Z,35.11
2018-04-18T08:25:03.056Z,35.00
2018-04-18T08:27:29.050Z,35.47
2018-04-18T08:29:55.045Z,36.91
2018-04-18T08:32:21.033Z,37.53
2018-04-18T08:34:46.996Z,41.19
2018-04-18T08:37:12.986Z,43.64
2018-04-18T08:39:38.941Z,43.68
2018-04-18T08:42:04.930Z,44.01
2018-04-18T08:44:30.895Z,44.59
2018-04-18T08:46:56.892Z,46.71
2018-04-18T08:49:22.848Z,46.25
2018-04-18T08:51:48.828Z,44.17
2018-04-18T08:54:14.815Z,44.69
2018-04-18T08:56:40.769Z,45.47
2018-04-18T08:59:06.724Z,44.15
2018-04-18T09:01:32.716Z,44.46
2018-04-18T09:03:58.659Z,43.70
2018-04-18T09:06:24.732Z,45.02
2018-04-18T09:08:50.746Z,44.00
2018-04-18T09:11:16.730Z,44.57
2018-04-18T09:13:42.697Z,44.71
2018-04-18T09:16:08.739Z,44.17
2018-04-18T09:18:34.777Z,44.47
2018-04-18T09:21:00.761Z,44.01
2018-04-18T09:23:27.656Z,43.63
2018-04-18T09:25:53.608Z,43.94
2018-04-18T09:28:19.583Z,45.19
2018-04-18T09:30:45.585Z,44.96
2018-04-18T09:33:11.625Z,44.10
2018-04-18T09:35:37.590Z,44.89
2018-04-18T09:38:03.567Z,44.46
2018-04-18T09:40:29.515Z,44.54
2018-04-18T09:42:55.479Z,44.77
2018-04-18T09:45:21.449Z,43.71
2018-04-18T09:47:47.703Z,41.08
2018-04-18T09:50:13.716Z,43.35
2018-04-18T09:52:39.703Z,42.12
2018-04-18T09:55:05.717Z,41.99
2018-04-18T09:57:31.744Z,44.74
2018-04-18T09:59:57.716Z,42.77
2018-04-18T10:02:23.810Z,38.55
2018-04-18T10:04:49.787Z,38.91
2018-04-18T10:07:15.818Z,36.65
2018-04-18T10:09:41.767Z,37.50
2018-04-18T10:12:07.722Z,38.15
2018-04-18T10:14:33.703Z,37.36
2018-04-18T10:16:59.674Z,39.55
2018-04-18T10:19:25.657Z,39.73
2018-04-18T10:21:51.623Z,39.50
2018-04-18T10:24:17.616Z,40.61
2018-04-18T10:26:43.568Z,38.85
2018-04-18T10:29:09.589Z,42.66
2018-04-18T10:31:35.561Z,41.04
2018-04-18T10:34:01.564Z,39.86
2018-04-18T10:36:27.529Z,42.68
2018-04-18T10:38:53.527Z,41.32
2018-04-18T10:41:19.501Z,39.20
2018-04-18T10:43:45.475Z,37.89
2018-04-18T10:46:11.459Z,38.17
2018-04-18T10:48:37.492Z,40.60
2018-04-18T10:51:03.552Z,41.57
2018-04-18T10:53:29.568Z,39.72
2018-04-18T10:55:55.574Z,39.80
2018-04-18T10:58:21.555Z,39.34
2018-04-18T11:00:47.553Z,38.72
2018-04-18T11:03:13.517Z,41.22
2018-04-18T11:05:39.528Z,42.28
2018-04-18T11:08:05.978Z,41.69
2018-04-18T11:10:31.955Z,41.89
2018-04-18T11:12:57.961Z,40.86
2018-04-18T11:15:24.050Z,42.79
2018-04-18T11:17:50.013Z,43.67
2018-04-18T11:20:15.986Z,42.46
2018-04-18T11:22:41.932Z,40.28
2018-04-18T11:25:07.934Z,41.93
2018-04-18T11:27:33.905Z,39.08
2018-04-18T11:29:59.920Z,37.88
2018-04-18T11:32:25.894Z,38.64
2018-04-18T11:34:51.857Z,40.55
2018-04-18T11:37:17.795Z,40.32
2018-04-18T11:39:43.858Z,38.67
2018-04-18T11:42:09.810Z,39.35
2018-04-18T11:44:35.799Z,37.76
2018-04-18T11:47:01.781Z,41.28
2018-04-18T11:49:27.800Z,41.96
2018-04-18T11:51:53.796Z,37.04
2018-04-18T11:54:19.795Z,39.10
2018-04-18T11:56:46.076Z,37.26
2018-04-18T11:59:12.046Z,37.69
2018-04-18T12:01:38.040Z,39.38
2018-04-18T12:04:04.069Z,39.40
2018-04-18T12:06:30.085Z,39.05
2018-04-18T12:08:56.090Z,41.85
2018-04-18T12:11:22.078Z,41.62
2018-04-18T12:13:48.127Z,42.43
2018-04-18T12:16:14.262Z,42.05
2018-04-18T12:18:40.259Z,42.26
2018-04-18T12:21:06.297Z,37.93
2018-04-18T12:23:32.282Z,38.42
2018-04-18T12:25:58.280Z,40.68
2018-04-18T12:28:24.228Z,39.10
2018-04-18T12:30:50.234Z,39.90
2018-04-18T12:33:16.294Z,40.71
2018-04-18T12:35:42.300Z,40.42
2018-04-18T12:38:08.310Z,40.19
2018-04-18T12:40:34.314Z,41.91
2018-04-18T12:43:00.336Z,38.48
2018-04-18T12:45:26.320Z,41.27
2018-04-18T12:47:52.377Z,38.39
2018-04-18T12:50:18.350Z,39.54
2018-04-18T12:52:44.324Z,40.77
2018-04-18T12:55:10.435Z,38.55
2018-04-18T12:57:36.488Z,39.13
2018-04-18T13:00:02.509Z,41.25
2018-04-18T13:02:28.521Z,40.91
2018-04-18T13:04:54.491Z,41.44
2018-04-18T13:07:21.903Z,40.95
2018-04-18T13:09:48.021Z,40.31
2018-04-18T13:12:14.062Z,40.26
2018-04-18T13:14:40.069Z,40.99
2018-04-18T13:17:06.050Z,38.94
2018-04-18T13:19:32.095Z,39.24
2018-04-18T13:21:58.093Z,41.21
2018-04-18T13:24:24.135Z,41.42
2018-04-18T13:26:50.109Z,39.16
2018-04-18T13:29:16.103Z,38.72
2018-04-18T13:31:42.101Z,41.13
2018-04-18T13:34:08.075Z,39.26
2018-04-18T13:36:34.038Z,41.09
2018-04-18T13:38:59.995Z,41.76
2018-04-18T13:41:25.973Z,41.64
2018-04-18T13:43:51.918Z,41.44
2018-04-18T13:46:17.890Z,41.81
2018-04-18T13:48:43.865Z,39.44
2018-04-18T13:51:09.837Z,40.48
2018-04-18T13:53:35.786Z,40.71
2018-04-18T13:56:01.735Z,40.25
2018-04-18T13:58:27.672Z,40.95
2018-04-18T14:00:53.630Z,42.19
2018-04-18T14:03:19.592Z,41.08
2018-04-18T14:05:45.549Z,40.04
2018-04-18T14:08:11.565Z,42.14
2018-04-18T14:10:37.553Z,42.15
2018-04-18T14:13:03.513Z,41.66
2018-04-18T14:15:29.523Z,42.84
2018-04-18T14:17:55.489Z,42.43
2018-04-18T14:20:21.471Z,43.66
2018-04-18T14:22:47.432Z,43.85
2018-04-18T14:25:13.395Z,43.08
2018-04-18T14:27:39.356Z,44.00
2018-04-18T14:30:05.301Z,43.44
2018-04-18T14:32:31.266Z,44.53
2018-04-18T14:34:57.245Z,44.61
2018-04-18T14:37:23.224Z,44.85
2018-04-18T14:39:49.168Z,43.49
2018-04-18T14:42:15.109Z,43.14
2018-04-18T14:44:41.085Z,44.03
2018-04-18T14:47:07.048Z,41.98
2018-04-18T14:49:33.060Z,41.93
2018-04-18T14:51:59.080Z,43.06
2018-04-18T14:54:25.105Z,43.38
2018-04-18T14:56:51.100Z,41.17
2018-04-18T14:59:17.083Z,43.32
2018-04-18T15:01:43.137Z,41.47
2018-04-18T15:04:09.141Z,39.71
2018-04-18T15:06:35.143Z,39.21
2018-04-18T15:09:01.196Z,39.41
2018-04-18T15:11:27.298Z,41.51
2018-04-18T15:16:25.676Z,42.38
2018-04-18T15:18:51.855Z,40.97
2018-04-18T15:21:19.527Z,42.49
2018-04-18T15:23:45.594Z,44.14
2018-04-18T15:26:12.287Z,39.38
2018-04-18T15:28:43.364Z,41.96
2018-04-18T15:31:09.412Z,42.50
2018-04-18T15:33:36.361Z,44.06
2018-04-18T15:36:02.454Z,39.15
2018-04-18T15:38:28.538Z,39.47
2018-04-18T15:40:54.574Z,39.52
2018-04-18T15:43:20.601Z,42.19
2018-04-18T15:45:46.658Z,39.32
2018-04-18T15:48:12.783Z,42.62
2018-04-18T15:50:38.845Z,42.40
2018-04-18T15:53:04.981Z,42.72
2018-04-18T15:55:32.272Z,43.88
2018-04-18T15:58:01.453Z,43.43
2018-04-18T16:00:28.112Z,38.79
2018-04-18T16:12:22.632Z,41.37
2018-04-18T16:14:48.660Z,42.61
2018-04-18T16:17:18.578Z,40.28
2018-04-18T16:19:45.286Z,39.17
2018-04-18T16:25:12.593Z,41.69
2018-04-18T16:35:17.463Z,42.65
2018-04-18T16:37:47.982Z,41.93
2018-04-18T16:40:16.735Z,43.38
2018-04-18T16:42:42.726Z,42.37
2018-04-18T16:47:57.830Z,44.19
2018-04-18T16:50:23.879Z,44.14
2018-04-18T16:55:28.898Z,45.74
2018-04-18T16:57:57.896Z,45.30
2018-04-18T17:00:23.913Z,45.44
2018-04-18T17:02:49.884Z,44.57
2018-04-18T17:05:15.847Z,44.87
2018-04-18T17:07:41.820Z,43.06
2018-04-18T17:10:08.803Z,43.87
2018-04-18T17:12:34.813Z,42.63
2018-04-18T17:15:00.794Z,43.61
2018-04-18T17:17:27.072Z,44.62
2018-04-18T17:19:53.075Z,44.65
2018-04-18T17:22:19.077Z,45.27
2018-04-18T17:24:46.439Z,45.44
2018-04-18T17:27:12.423Z,44.75
2018-04-18T17:29:38.419Z,44.17
2018-04-18T17:32:04.447Z,43.74
2018-04-18T17:34:30.425Z,45.88
2018-04-18T17:36:56.400Z,46.05
2018-04-18T17:39:22.425Z,46.77
2018-04-18T17:41:48.397Z,47.76
2018-04-18T17:44:14.590Z,47.40
2018-04-18T17:46:40.661Z,44.86
2018-04-18T17:49:06.666Z,46.90
2018-04-18T17:51:32.877Z,47.43
2018-04-18T17:53:59.923Z,45.99
2018-04-18T17:56:25.884Z,45.62
2018-04-18T17:58:52.292Z,45.65
2018-04-18T18:41:27.348Z,48.30
2018-04-18T18:43:53.321Z,48.30
2018-04-18T18:46:19.265Z,48.24
2018-04-18T18:48:45.205Z,48.29
2018-04-18T18:51:11.156Z,48.40
2018-04-18T18:53:37.101Z,48.30
2018-04-18T18:56:03.092Z,48.38
2018-04-18T18:58:29.053Z,48.57
2018-04-18T19:00:55.019Z,48.92
2018-04-18T19:03:21.051Z,49.52
2018-04-18T19:05:47.040Z,50.28
2018-04-18T19:08:13.175Z,50.57
2018-04-18T19:10:39.156Z,51.08
2018-04-18T19:13:05.172Z,50.72
2018-04-18T19:15:31.176Z,49.87
2018-04-18T19:17:57.149Z,49.44
2018-04-18T19:20:23.098Z,49.33
2018-04-18T19:22:49.106Z,49.61
2018-04-18T19:25:15.042Z,49.96
2018-04-18T19:27:41.013Z,49.81
2018-04-18T19:30:06.986Z,50.21
2018-04-18T19:32:32.933Z,50.79
2018-04-18T19:34:58.872Z,51.31
2018-04-18T19:37:25.163Z,51.61
2018-04-18T19:39:51.148Z,51.31
2018-04-18T19:42:17.129Z,51.71
2018-04-18T19:44:43.085Z,51.49
2018-04-18T19:47:09.285Z,51.70
2018-04-18T19:49:35.541Z,52.30
2018-04-18T19:52:01.520Z,53.15
2018-04-18T19:54:29.570Z,52.25
2018-04-18T19:56:55.537Z,53.03
2018-04-18T19:59:21.527Z,53.72
2018-04-18T20:01:47.477Z,54.73
2018-04-18T20:04:13.565Z,54.17
2018-04-18T20:06:39.510Z,53.71
2018-04-18T20:09:05.478Z,53.36
2018-04-18T20:11:31.418Z,53.94
2018-04-18T20:13:57.367Z,53.76
2018-04-18T20:16:23.357Z,54.29
2018-04-18T20:18:49.329Z,54.67
2018-04-18T20:21:15.282Z,54.39
2018-04-18T20:23:41.231Z,53.61
2018-04-18T20:26:07.194Z,53.47
2018-04-18T20:28:33.285Z,53.19
2018-04-18T20:30:59.252Z,53.46
2018-04-18T20:33:25.217Z,53.62
2018-04-18T20:35:51.262Z,54.00
2018-04-18T20:38:17.206Z,54.77
2018-04-18T20:40:43.153Z,54.26
2018-04-18T20:45:40.850Z,54.34
2018-04-18T20:48:06.787Z,54.73
2018-04-18T20:50:32.745Z,55.75
2018-04-18T20:52:58.692Z,55.08
2018-04-18T20:55:24.662Z,54.88
2018-04-18T20:57:50.600Z,55.44
2018-04-18T21:00:16.562Z,55.45
2018-04-18T21:02:42.514Z,55.84
2018-04-18T21:05:08.484Z,57.92
2018-04-18T21:07:34.432Z,58.11
2018-04-18T21:10:00.496Z,57.10
2018-04-18T21:12:26.467Z,58.60
2018-04-18T21:14:52.416Z,58.32
2018-04-18T21:17:18.365Z,59.32
2018-04-18T21:19:44.318Z,57.47
2018-04-18T21:22:10.273Z,56.47
2018-04-18T21:24:36.238Z,56.44
2018-04-18T21:27:02.166Z,56.77
2018-04-18T21:29:28.177Z,57.70
2018-04-18T21:31:54.122Z,57.42
2018-04-18T21:34:20.083Z,57.11
2018-04-18T21:36:46.039Z,57.73
2018-04-18T21:39:12.005Z,57.77
2018-04-18T21:41:37.939Z,58.28
2018-04-18T21:44:03.878Z,57.81
2018-04-18T21:46:29.919Z,56.26
2018-04-18T21:48:55.868Z,56.19
2018-04-18T21:51:21.839Z,56.49
2018-04-18T21:53:47.766Z,57.77
2018-04-18T21:56:13.717Z,57.74
2018-04-18T21:58:39.663Z,56.98
2018-04-18T22:01:05.640Z,56.11
2018-04-18T22:03:31.563Z,56.61
2018-04-18T22:05:57.507Z,56.77
2018-04-18T22:08:23.458Z,56.66
2018-04-18T22:10:49.409Z,57.41
2018-04-18T22:13:15.368Z,56.79
2018-04-18T22:15:41.324Z,57.00
2018-04-18T22:18:07.272Z,57.29
2018-04-18T22:20:33.238Z,58.65
2018-04-18T22:22:59.216Z,58.52
2018-04-18T22:25:25.161Z,57.92
2018-04-18T22:27:51.135Z,59.31
2018-04-18T22:30:17.093Z,57.49
2018-04-18T22:32:43.055Z,58.37
2018-04-18T22:35:08.980Z,58.23
2018-04-18T22:37:34.942Z,59.05
2018-04-18T22:40:00.887Z,57.92
2018-04-18T22:42:26.837Z,56.83
2018-04-18T22:44:52.784Z,59.67
2018-04-18T22:47:18.744Z,60.86
2018-04-18T22:49:44.701Z,59.94
2018-04-18T22:52:10.641Z,59.22
2018-04-18T22:54:36.612Z,59.33
2018-04-18T22:57:02.563Z,60.53
2018-04-18T22:59:28.515Z,61.03
2018-04-18T23:01:54.458Z,61.03
2018-04-18T23:04:20.441Z,59.80
2018-04-18T23:06:46.393Z,59.15
2018-04-18T23:09:12.338Z,58.82
2018-04-18T23:11:38.264Z,60.87
2018-04-18T23:14:04.204Z,61.79
2018-04-18T23:16:30.268Z,59.16
2018-04-18T23:18:56.239Z,59.60
2018-04-18T23:21:22.171Z,59.73
2018-04-18T23:23:48.126Z,61.86
2018-04-18T23:26:14.060Z,62.16
2018-04-18T23:28:40.021Z,62.23
2018-04-18T23:31:05.990Z,62.23
2018-04-18T23:33:31.949Z,62.53
2018-04-18T23:35:57.898Z,62.78
2018-04-18T23:38:23.818Z,60.34
2018-04-18T23:40:49.766Z,60.81
2018-04-18T23:43:15.711Z,61.82
2018-04-18T23:45:41.663Z,63.00
2018-04-18T23:48:07.605Z,61.90
2018-04-18T23:50:33.554Z,61.96
2018-04-18T23:52:59.502Z,60.83
2018-04-18T23:55:25.463Z,60.74
2018-04-18T23:57:51.402Z,62.20
